createdAt,value
2023-04-14T00:01:37.824Z,84.37
2023-04-14T00:04:04.564Z,84.45
2023-04-14T00:06:31.353Z,84.27
2023-04-14T00:08:58.410Z,84.70
2023-04-14T00:11:32.444Z,85.21
2023-04-14T00:14:01.239Z,85.53
2023-04-14T00:16:27.778Z,85.04
2023-04-14T00:18:57.082Z,85.37
2023-04-14T00:21:23.902Z,85.32
2023-04-14T00:23:50.609Z,85.42
2023-04-14T00:26:17.389Z,85.45
2023-04-14T00:28:43.814Z,85.54
2023-04-14T00:31:11.278Z,86.03
2023-04-14T00:33:37.681Z,86.17
2023-04-14T00:36:04.570Z,86.09
2023-04-14T00:38:31.756Z,86.20
2023-04-14T00:40:58.397Z,86.89
2023-04-14T00:43:24.846Z,86.38
2023-04-14T00:45:52.391Z,86.97
2023-04-14T00:48:19.401Z,86.73
2023-04-14T00:50:54.557Z,86.38
2023-04-14T00:53:23.989Z,86.71
2023-04-14T00:55:50.932Z,86.69
2023-04-14T00:58:17.689Z,86.45
2023-04-14T01:00:44.320Z,87.01
2023-04-14T01:03:10.926Z,86.25
2023-04-14T01:05:37.568Z,86.21
2023-04-14T01:08:04.473Z,86.87
2023-04-14T01:10:38.140Z,86.73
2023-04-14T01:13:35.169Z,87.13
2023-04-14T01:16:09.722Z,87.05
2023-04-14T01:18:46.347Z,86.81
2023-04-14T01:21:31.401Z,86.91
2023-04-14T01:24:16.254Z,87.67
2023-04-14T01:26:44.015Z,87.37
2023-04-14T01:29:29.199Z,87.72
2023-04-14T01:32:05.684Z,87.21
2023-04-14T01:34:44.125Z,87.41
2023-04-14T01:37:35.104Z,87.36
2023-04-14T01:40:05.817Z,87.72
2023-04-14T01:42:43.660Z,87.67
2023-04-14T01:45:22.175Z,87.75
2023-04-14T01:47:50.511Z,88.15
2023-04-14T01:50:19.437Z,87.67
2023-04-14T01:52:48.183Z,87.89
2023-04-14T01:55:20.030Z,87.55
2023-04-14T01:57:52.624Z,87.48
2023-04-14T02:00:21.030Z,87.48
2023-04-14T02:03:04.345Z,87.39
2023-04-14T02:05:34.729Z,87.14
2023-04-14T02:08:16.244Z,87.23
2023-04-14T02:10:46.294Z,87.44
2023-04-14T02:13:14.081Z,87.52
2023-04-14T02:15:41.618Z,87.00
2023-04-14T02:18:14.809Z,87.42
2023-04-14T02:20:44.887Z,87.38
2023-04-14T02:23:12.670Z,87.48
2023-04-14T02:25:46.292Z,87.66
2023-04-14T02:28:18.264Z,87.48
2023-04-14T02:30:48.941Z,87.12
2023-04-14T02:33:20.508Z,87.52
2023-04-14T02:36:01.388Z,87.74
2023-04-14T02:38:39.118Z,87.80
2023-04-14T02:41:13.117Z,87.71
2023-04-14T02:43:53.814Z,87.80
2023-04-14T02:46:23.505Z,87.83
2023-04-14T02:48:51.975Z,88.48
2023-04-14T02:51:19.540Z,88.61
2023-04-14T02:53:46.510Z,88.45
2023-04-14T02:56:13.275Z,88.76
2023-04-14T02:58:40.592Z,89.16
2023-04-14T03:01:07.399Z,89.25
2023-04-14T03:03:37.545Z,89.20
2023-04-14T03:06:08.370Z,88.95
2023-04-14T03:08:36.557Z,88.87
2023-04-14T03:11:04.724Z,89.18
2023-04-14T03:13:33.550Z,89.05
2023-04-14T03:16:00.705Z,89.22
2023-04-14T03:18:28.061Z,88.90
2023-04-14T03:20:55.963Z,88.62
2023-04-14T03:23:25.450Z,88.41
2023-04-14T03:25:53.339Z,88.65
2023-04-14T03:28:30.305Z,88.30
2023-04-14T03:31:06.514Z,88.81
2023-04-14T03:33:34.497Z,88.50
2023-04-14T03:36:01.977Z,88.89
2023-04-14T03:38:28.854Z,88.87
2023-04-14T03:40:59.920Z,89.03
2023-04-14T03:43:28.754Z,88.94
2023-04-14T03:45:55.453Z,89.14
2023-04-14T03:48:26.345Z,89.23
2023-04-14T03:50:54.804Z,89.09
2023-04-14T03:53:21.767Z,89.08
2023-04-14T03:55:51.614Z,89.33
2023-04-14T03:58:20.045Z,89.56
2023-04-14T04:00:47.572Z,89.70
2023-04-14T04:03:15.751Z,89.50
2023-04-14T04:05:44.059Z,89.64
2023-04-14T04:08:12.045Z,89.65
2023-04-14T04:10:39.613Z,89.88
2023-04-14T04:13:17.159Z,90.01
2023-04-14T04:15:45.487Z,90.04
2023-04-14T04:18:16.746Z,89.83
2023-04-14T04:20:44.425Z,89.93
2023-04-14T04:23:12.267Z,89.87
2023-04-14T04:25:40.609Z,89.50
2023-04-14T04:28:07.567Z,89.53
2023-04-14T04:30:36.579Z,89.64
2023-04-14T04:33:03.855Z,89.54
2023-04-14T04:35:32.552Z,89.54
2023-04-14T04:38:00.887Z,89.59
2023-04-14T04:40:27.641Z,89.68
2023-04-14T04:42:54.121Z,89.79
2023-04-14T04:45:58.671Z,89.78
2023-04-14T04:48:25.441Z,89.67
2023-04-14T04:50:51.926Z,89.48
2023-04-14T04:53:18.361Z,89.98
2023-04-14T04:55:44.781Z,90.09
2023-04-14T04:58:11.222Z,90.07
2023-04-14T05:00:37.822Z,89.64
2023-04-14T05:03:04.546Z,89.94
2023-04-14T05:05:35.592Z,90.06
2023-04-14T05:08:07.974Z,89.93
2023-04-14T05:10:36.920Z,90.05
2023-04-14T05:13:03.708Z,90.08
2023-04-14T05:15:30.453Z,90.14
2023-04-14T05:17:59.212Z,89.89
2023-04-14T05:20:29.326Z,90.01
2023-04-14T05:22:58.120Z,90.20
2023-04-14T05:25:24.611Z,88.53
2023-04-14T05:27:50.969Z,88.50
2023-04-14T05:30:17.757Z,87.69
2023-04-14T05:32:44.475Z,86.83
2023-04-14T05:35:11.204Z,84.46
2023-04-14T05:37:37.855Z,80.24
2023-04-14T05:40:05.097Z,75.36
2023-04-14T05:42:31.732Z,72.35
2023-04-14T05:44:58.267Z,71.01
2023-04-14T05:47:24.759Z,65.34
2023-04-14T05:49:51.291Z,60.16
2023-04-14T05:52:17.703Z,55.78
2023-04-14T05:54:44.223Z,51.88
2023-04-14T05:57:10.910Z,48.68
2023-04-14T05:59:37.332Z,46.71
2023-04-14T06:02:07.089Z,43.74
2023-04-14T06:04:34.459Z,42.08
2023-04-14T06:07:04.238Z,39.99
2023-04-14T06:09:36.271Z,37.99
2023-04-14T06:12:05.599Z,36.30
2023-04-14T06:14:32.294Z,35.72
2023-04-14T06:16:58.882Z,34.78
2023-04-14T06:19:25.420Z,33.12
2023-04-14T06:21:51.937Z,32.67
2023-04-14T06:24:18.461Z,31.33
2023-04-14T06:26:44.928Z,31.58
2023-04-14T06:29:12.107Z,30.69
2023-04-14T06:31:38.736Z,29.78
2023-04-14T06:34:05.509Z,31.81
2023-04-14T06:36:32.975Z,34.42
2023-04-14T06:39:01.302Z,35.51
2023-04-14T06:41:28.089Z,38.85
2023-04-14T06:43:54.512Z,40.79
2023-04-14T06:46:21.083Z,42.47
2023-04-14T06:48:47.454Z,45.63
2023-04-14T06:51:14.307Z,48.61
2023-04-14T06:53:40.817Z,49.48
2023-04-14T06:56:07.984Z,51.41
2023-04-14T06:58:34.659Z,52.98
2023-04-14T07:01:02.593Z,52.63
2023-04-14T07:03:31.020Z,53.76
2023-04-14T07:06:18.323Z,54.69
2023-04-14T07:08:45.541Z,56.15
2023-04-14T07:11:12.418Z,58.15
2023-04-14T07:13:39.541Z,57.60
2023-04-14T07:16:07.976Z,56.67
2023-04-14T07:18:35.514Z,50.81
2023-04-14T07:21:02.844Z,44.00
2023-04-14T07:23:29.555Z,41.70
2023-04-14T07:25:57.885Z,37.96
2023-04-14T07:28:25.944Z,35.32
2023-04-14T07:30:53.489Z,33.85
2023-04-14T07:33:22.028Z,33.38
2023-04-14T07:36:09.379Z,33.44
2023-04-14T07:38:35.967Z,33.36
2023-04-14T07:41:04.997Z,32.57
2023-04-14T07:43:35.202Z,32.23
2023-04-14T07:46:13.549Z,32.13
2023-04-14T07:48:40.377Z,32.11
2023-04-14T07:51:13.699Z,33.53
2023-04-14T07:53:43.613Z,31.78
2023-04-14T07:56:10.640Z,31.73
2023-04-14T07:58:37.559Z,31.87
2023-04-14T08:01:08.494Z,33.28
2023-04-14T08:03:38.099Z,32.24
2023-04-14T08:06:07.816Z,32.58
2023-04-14T08:08:35.482Z,32.71
2023-04-14T08:11:01.990Z,35.13
2023-04-14T08:13:28.544Z,33.03
2023-04-14T08:15:55.793Z,32.65
2023-04-14T08:18:22.291Z,35.06
2023-04-14T08:20:49.736Z,33.31
2023-04-14T08:23:16.644Z,33.85
2023-04-14T08:25:46.324Z,33.93
2023-04-14T08:28:16.052Z,32.59
2023-04-14T08:30:42.650Z,34.74
2023-04-14T08:33:09.171Z,33.88
2023-04-14T08:35:41.998Z,32.86
2023-04-14T08:38:09.605Z,34.11
2023-04-14T08:40:39.112Z,34.41
2023-04-14T08:43:06.672Z,32.58
2023-04-14T08:45:36.418Z,32.42
2023-04-14T08:48:04.583Z,34.22
2023-04-14T08:51:06.480Z,35.61
2023-04-14T08:53:33.486Z,34.22
2023-04-14T08:56:18.858Z,34.68
2023-04-14T08:58:45.754Z,35.84
2023-04-14T09:01:12.951Z,33.66
2023-04-14T09:03:40.003Z,33.02
2023-04-14T09:06:07.901Z,32.97
2023-04-14T09:08:36.231Z,32.62
2023-04-14T09:11:03.682Z,32.61
2023-04-14T09:13:31.213Z,32.53
2023-04-14T09:15:58.294Z,33.73
2023-04-14T09:18:25.343Z,34.37
2023-04-14T09:21:49.243Z,34.37
2023-04-14T09:24:18.338Z,34.65
2023-04-14T09:26:45.241Z,34.47
2023-04-14T09:29:26.278Z,35.87
2023-04-14T09:31:52.859Z,34.20
2023-04-14T09:34:21.451Z,33.25
2023-04-14T09:37:08.281Z,34.42
2023-04-14T09:39:35.997Z,32.88
2023-04-14T09:42:03.885Z,34.14
2023-04-14T09:47:20.662Z,33.51
2023-04-14T09:50:00.908Z,34.70
2023-04-14T09:52:56.875Z,34.05
2023-04-14T09:55:23.352Z,36.07
2023-04-14T09:57:51.922Z,35.03
2023-04-14T10:00:21.748Z,32.72
2023-04-14T10:02:59.169Z,33.37
2023-04-14T10:05:33.010Z,36.52
2023-04-14T10:08:05.669Z,34.24
2023-04-14T10:10:38.750Z,33.83
2023-04-14T10:13:05.244Z,33.59
2023-04-14T10:15:32.650Z,33.74
2023-04-14T10:17:59.455Z,34.20
2023-04-14T10:20:38.654Z,35.39
2023-04-14T10:23:06.107Z,33.85
2023-04-14T10:25:33.177Z,35.09
2023-04-14T10:28:08.778Z,36.81
2023-04-14T10:30:35.656Z,35.35
2023-04-14T10:33:02.799Z,34.20
2023-04-14T10:35:39.572Z,34.83
2023-04-14T10:38:06.163Z,34.74
2023-04-14T10:40:51.729Z,36.11
2023-04-14T10:43:35.475Z,35.63
2023-04-14T10:46:02.801Z,35.53
2023-04-14T10:48:55.032Z,36.28
2023-04-14T10:51:40.339Z,36.88
2023-04-14T10:54:17.297Z,36.11
2023-04-14T10:57:11.138Z,36.40
2023-04-14T10:59:41.754Z,36.14
2023-04-14T11:02:28.156Z,37.94
2023-04-14T11:05:10.616Z,40.21
2023-04-14T11:07:48.426Z,39.72
2023-04-14T11:10:18.372Z,38.65
2023-04-14T11:12:47.011Z,37.60
2023-04-14T11:15:14.374Z,37.27
2023-04-14T11:17:43.306Z,38.20
2023-04-14T11:20:17.992Z,39.10
2023-04-14T11:22:48.591Z,40.09
2023-04-14T11:25:17.254Z,37.80
2023-04-14T11:27:44.973Z,35.94
2023-04-14T11:30:17.245Z,36.35
2023-04-14T11:32:51.757Z,36.81
2023-04-14T11:35:20.295Z,36.82
2023-04-14T11:37:48.076Z,37.03
2023-04-14T11:40:16.070Z,35.53
2023-04-14T11:42:59.147Z,37.18
2023-04-14T11:45:29.947Z,36.85
2023-04-14T11:48:00.948Z,37.70
2023-04-14T11:50:31.228Z,38.52
2023-04-14T11:52:59.877Z,39.88
2023-04-14T11:58:11.552Z,38.42
2023-04-14T12:00:38.184Z,39.25
2023-04-14T12:03:05.235Z,39.09
2023-04-14T12:05:33.610Z,39.58
2023-04-14T12:08:07.521Z,39.79
2023-04-14T12:10:34.575Z,37.29
2023-04-14T12:15:55.876Z,38.56
2023-04-14T12:18:24.925Z,38.33
2023-04-14T12:23:48.502Z,38.41
2023-04-14T12:26:15.642Z,37.49
2023-04-14T12:28:42.486Z,37.87
2023-04-14T12:31:09.961Z,38.07
2023-04-14T12:33:36.682Z,39.13
2023-04-14T12:36:05.587Z,37.88
2023-04-14T12:38:33.310Z,37.67
2023-04-14T12:41:00.508Z,37.51
2023-04-14T12:43:30.126Z,37.21
2023-04-14T12:45:58.216Z,37.06
2023-04-14T12:49:01.474Z,37.18
2023-04-14T12:51:28.333Z,37.18
2023-04-14T12:54:06.692Z,38.39
2023-04-14T12:56:33.147Z,36.82
2023-04-14T12:59:00.191Z,35.93
2023-04-14T13:01:26.973Z,37.08
2023-04-14T13:03:57.929Z,38.04
2023-04-14T13:06:39.593Z,35.43
2023-04-14T13:09:06.186Z,35.34
2023-04-14T13:11:32.913Z,35.87
2023-04-14T13:14:05.778Z,35.99
2023-04-14T13:16:32.810Z,35.31
2023-04-14T13:18:59.836Z,35.19
2023-04-14T13:21:37.638Z,36.43
2023-04-14T13:24:04.853Z,36.37
2023-04-14T13:26:31.393Z,36.13
2023-04-14T13:28:57.917Z,34.39
2023-04-14T13:31:27.283Z,34.80
2023-04-14T13:33:54.122Z,35.15
2023-04-14T13:36:28.841Z,35.59
2023-04-14T13:38:56.382Z,35.90
2023-04-14T13:41:26.212Z,35.67
2023-04-14T13:43:55.051Z,34.85
2023-04-14T13:46:21.757Z,36.12
2023-04-14T13:48:48.209Z,35.40
2023-04-14T13:51:14.641Z,35.55
2023-04-14T13:53:41.211Z,35.34
2023-04-14T13:56:07.798Z,36.27
2023-04-14T13:58:34.331Z,35.21
2023-04-14T14:01:09.500Z,34.74
2023-04-14T14:03:38.568Z,35.04
2023-04-14T14:06:15.957Z,35.01
2023-04-14T14:09:05.297Z,35.34
2023-04-14T14:11:33.232Z,37.44
2023-04-14T14:14:00.239Z,35.85
2023-04-14T14:16:36.547Z,36.56
2023-04-14T14:19:05.398Z,35.64
2023-04-14T14:21:44.380Z,35.64
2023-04-14T14:24:12.377Z,36.08
2023-04-14T14:26:38.793Z,34.94
2023-04-14T14:29:11.276Z,35.22
2023-04-14T14:31:38.118Z,34.48
2023-04-14T14:34:07.515Z,34.57
2023-04-14T14:36:34.041Z,36.50
2023-04-14T14:39:00.598Z,34.60
2023-04-14T14:41:27.268Z,35.56
2023-04-14T14:43:53.773Z,35.61
2023-04-14T14:49:05.984Z,35.87
2023-04-14T14:51:32.363Z,36.42
2023-04-14T14:54:09.220Z,35.19
2023-04-14T14:56:36.532Z,34.85
2023-04-14T14:59:03.506Z,36.12
2023-04-14T15:01:30.233Z,35.73
2023-04-14T15:03:57.166Z,35.78
2023-04-14T15:06:23.847Z,35.71
2023-04-14T15:08:50.526Z,36.53
2023-04-14T15:11:17.460Z,36.19
2023-04-14T15:13:44.836Z,36.21
2023-04-14T15:16:11.498Z,37.95
2023-04-14T15:18:38.158Z,36.74
2023-04-14T15:21:04.957Z,36.03
2023-04-14T15:23:35.563Z,36.18
2023-04-14T15:28:42.842Z,36.04
2023-04-14T15:31:09.510Z,35.93
2023-04-14T15:33:36.139Z,36.87
2023-04-14T15:36:02.675Z,36.15
2023-04-14T15:38:29.144Z,36.19
2023-04-14T15:43:36.386Z,37.19
2023-04-14T15:46:03.475Z,38.07
2023-04-14T15:48:39.334Z,39.25
2023-04-14T15:51:06.517Z,37.99
2023-04-14T15:53:33.009Z,38.00
2023-04-14T15:55:59.704Z,38.48
2023-04-14T15:58:26.379Z,38.87
2023-04-14T16:00:53.078Z,38.83
2023-04-14T16:03:19.888Z,39.02
2023-04-14T16:05:46.621Z,39.86
2023-04-14T16:08:29.439Z,39.35
2023-04-14T16:10:56.167Z,38.84
2023-04-14T16:13:23.060Z,39.71
2023-04-14T16:15:49.579Z,39.93
2023-04-14T16:18:15.986Z,39.66
2023-04-14T16:20:42.570Z,39.72
2023-04-14T16:23:09.110Z,39.51
2023-04-14T16:25:35.872Z,39.86
2023-04-14T16:28:02.653Z,40.37
2023-04-14T16:30:41.126Z,40.70
2023-04-14T16:33:07.859Z,39.96
2023-04-14T16:35:35.051Z,40.36
2023-04-14T16:38:01.570Z,41.02
2023-04-14T16:40:37.547Z,41.12
2023-04-14T16:43:07.550Z,40.29
2023-04-14T16:45:34.833Z,40.06
2023-04-14T16:48:01.733Z,40.23
2023-04-14T16:50:28.372Z,39.96
2023-04-14T16:53:06.649Z,40.40
2023-04-14T16:55:41.744Z,40.34
2023-04-14T16:58:15.591Z,39.86
2023-04-14T17:00:50.959Z,39.77
2023-04-14T17:03:17.578Z,40.44
2023-04-14T17:05:49.343Z,40.44
2023-04-14T17:08:15.782Z,40.26
2023-04-14T17:10:45.503Z,40.05
2023-04-14T17:13:26.171Z,40.50
2023-04-14T17:18:33.564Z,40.19
2023-04-14T17:21:00.150Z,41.14
2023-04-14T17:23:37.605Z,40.49
2023-04-14T17:26:14.306Z,41.01
2023-04-14T17:28:41.617Z,41.35
2023-04-14T17:31:13.351Z,42.01
2023-04-14T17:33:41.741Z,40.65
2023-04-14T17:36:14.706Z,41.17
2023-04-14T17:38:45.888Z,42.41
2023-04-14T17:41:13.191Z,41.62
2023-04-14T17:43:44.356Z,41.19
2023-04-14T17:48:52.430Z,41.76
2023-04-14T17:51:19.392Z,41.72
2023-04-14T17:53:48.131Z,41.88
2023-04-14T17:56:16.045Z,43.97
2023-04-14T17:58:42.753Z,43.73
2023-04-14T18:01:09.852Z,44.30
2023-04-14T18:03:36.491Z,44.32
2023-04-14T18:06:03.064Z,44.54
2023-04-14T18:08:30.993Z,45.42
2023-04-14T18:11:01.386Z,48.29
2023-04-14T18:13:28.544Z,47.89
2023-04-14T18:15:55.168Z,49.89
2023-04-14T18:18:25.315Z,49.92
2023-04-14T18:20:55.668Z,50.10
2023-04-14T18:23:22.292Z,50.01
2023-04-14T18:28:28.322Z,51.22
2023-04-14T18:30:56.056Z,51.94
2023-04-14T18:33:22.914Z,51.85
2023-04-14T18:35:50.988Z,52.69
2023-04-14T18:38:18.398Z,53.64
2023-04-14T18:40:45.552Z,54.00
2023-04-14T18:43:12.693Z,54.44
2023-04-14T18:45:48.269Z,53.76
2023-04-14T18:48:18.191Z,54.55
2023-04-14T18:50:45.276Z,54.30
2023-04-14T18:53:12.083Z,54.64
2023-04-14T18:55:45.072Z,55.45
2023-04-14T18:58:12.939Z,55.53
2023-04-14T19:00:44.337Z,56.04
2023-04-14T19:03:11.075Z,56.92
2023-04-14T19:05:37.741Z,57.60
2023-04-14T19:08:04.525Z,58.02
2023-04-14T19:10:32.077Z,58.12
2023-04-14T19:12:58.521Z,58.16
2023-04-14T19:15:27.773Z,58.38
2023-04-14T19:17:57.758Z,58.59
2023-04-14T19:20:24.506Z,58.07
2023-04-14T19:22:51.544Z,58.54
2023-04-14T19:25:18.510Z,58.57
2023-04-14T19:27:48.077Z,55.40
2023-04-14T19:30:14.805Z,57.07
2023-04-14T19:32:41.962Z,56.60
2023-04-14T19:35:09.218Z,55.66
2023-04-14T19:37:36.256Z,55.30
2023-04-14T19:40:06.252Z,54.80
2023-04-14T19:42:33.296Z,53.79
2023-04-14T19:45:00.236Z,53.94
2023-04-14T19:47:26.832Z,53.00
2023-04-14T19:49:55.054Z,52.95
2023-04-14T19:52:22.286Z,53.00
2023-04-14T19:54:48.894Z,52.80
2023-04-14T19:57:15.624Z,53.29
2023-04-14T19:59:42.704Z,54.32
2023-04-14T20:02:10.762Z,54.15
2023-04-14T20:04:37.930Z,54.73
2023-04-14T20:07:05.045Z,55.10
2023-04-14T20:09:31.779Z,55.29
2023-04-14T20:12:00.677Z,56.81
2023-04-14T20:14:28.160Z,57.59
2023-04-14T20:16:55.680Z,58.98
2023-04-14T20:19:22.759Z,59.31
2023-04-14T20:21:49.351Z,59.99
2023-04-14T20:24:25.204Z,60.52
2023-04-14T20:26:56.325Z,60.81
2023-04-14T20:29:29.937Z,61.29
2023-04-14T20:32:09.357Z,61.97
2023-04-14T20:34:36.016Z,62.13
2023-04-14T20:37:07.889Z,62.87
2023-04-14T20:39:34.512Z,63.55
2023-04-14T20:42:01.447Z,63.62
2023-04-14T20:44:27.852Z,64.25
2023-04-14T20:46:55.631Z,64.25
2023-04-14T20:49:33.644Z,64.85
2023-04-14T20:52:00.523Z,65.38
2023-04-14T20:54:28.023Z,66.40
2023-04-14T20:56:54.682Z,66.47
2023-04-14T20:59:21.297Z,66.44
2023-04-14T21:01:48.684Z,67.12
2023-04-14T21:04:15.468Z,67.33
2023-04-14T21:06:42.038Z,66.88
2023-04-14T21:09:13.468Z,66.76
2023-04-14T21:11:39.978Z,67.41
2023-04-14T21:15:41.658Z,66.79
2023-04-14T21:16:52.986Z,67.09
2023-04-14T21:19:19.710Z,67.41
2023-04-14T21:21:46.800Z,67.27
2023-04-14T21:24:13.741Z,68.24
2023-04-14T21:26:40.309Z,68.58
2023-04-14T21:29:06.720Z,69.10
2023-04-14T21:31:40.769Z,69.01
2023-04-14T21:34:07.223Z,69.41
2023-04-14T21:36:33.714Z,69.35
2023-04-14T21:39:00.945Z,69.79
2023-04-14T21:41:27.626Z,69.74
2023-04-14T21:43:53.996Z,69.41
2023-04-14T21:46:20.861Z,69.85
2023-04-14T21:48:47.656Z,70.37
2023-04-14T21:51:14.321Z,70.52
2023-04-14T21:53:40.765Z,70.64
2023-04-14T21:56:22.531Z,70.07
2023-04-14T21:58:49.515Z,70.72
2023-04-14T22:01:15.936Z,70.92
2023-04-14T22:03:42.517Z,71.33
2023-04-14T22:06:12.060Z,71.17
2023-04-14T22:08:46.949Z,71.38
2023-04-14T22:11:14.493Z,71.94
2023-04-14T22:13:41.167Z,71.29
2023-04-14T22:16:09.487Z,71.92
2023-04-14T22:18:38.812Z,71.90
2023-04-14T22:21:09.780Z,71.45
2023-04-14T22:23:36.837Z,71.82
2023-04-14T22:26:03.581Z,71.60
2023-04-14T22:28:30.067Z,72.15
2023-04-14T22:30:56.794Z,71.86
2023-04-14T22:33:23.244Z,72.32
2023-04-14T22:35:50.085Z,72.64
2023-04-14T22:38:19.197Z,72.96
2023-04-14T22:40:45.791Z,72.56
2023-04-14T22:43:12.421Z,72.51
2023-04-14T22:45:40.010Z,72.85
2023-04-14T22:48:09.087Z,72.77
2023-04-14T22:50:39.211Z,73.27
2023-04-14T22:53:10.741Z,73.18
2023-04-14T22:55:37.325Z,73.40
2023-04-14T22:58:04.150Z,74.12
2023-04-14T23:00:30.596Z,73.96
2023-04-14T23:02:59.302Z,73.68
2023-04-14T23:05:25.968Z,73.51
2023-04-14T23:07:52.707Z,73.72
2023-04-14T23:10:19.310Z,73.77
2023-04-14T23:12:45.869Z,73.48
2023-04-14T23:15:12.406Z,72.80
2023-04-14T23:17:38.937Z,72.28
2023-04-14T23:20:06.107Z,71.39
2023-04-14T23:22:32.999Z,70.95
2023-04-14T23:25:19.817Z,70.39
2023-04-14T23:27:46.470Z,70.14
2023-04-14T23:30:13.068Z,69.61
2023-04-14T23:32:39.925Z,69.30
2023-04-14T23:35:07.221Z,68.75
2023-04-14T23:37:33.626Z,68.33
2023-04-14T23:40:00.082Z,67.81
2023-04-14T23:42:27.297Z,68.08
2023-04-14T23:44:54.509Z,68.22
2023-04-14T23:47:21.718Z,68.50
2023-04-14T23:49:57.338Z,68.36
2023-04-14T23:52:27.219Z,68.99
2023-04-14T23:54:53.656Z,69.17
2023-04-14T23:57:20.222Z,69.11
2023-04-14T23:59:47.208Z,69.23
